createdAt,value
2023-05-07T00:01:00.734Z,16.05
2023-05-07T00:03:28.679Z,14.95
2023-05-07T00:05:56.624Z,15.90
2023-05-07T00:08:24.511Z,12.65
2023-05-07T00:10:52.205Z,14.95
2023-05-07T00:13:20.034Z,17.00
2023-05-07T00:15:47.838Z,15.10
2023-05-07T00:18:15.673Z,17.08
2023-05-07T00:20:43.502Z,14.20
2023-05-07T00:23:11.408Z,18.45
2023-05-07T00:25:39.155Z,15.65
2023-05-07T00:28:06.912Z,18.05
2023-05-07T00:30:34.535Z,20.98
2023-05-07T00:33:02.442Z,20.05
2023-05-07T00:35:30.908Z,17.02
2023-05-07T00:38:00.702Z,18.10
2023-05-07T00:40:28.473Z,15.40
2023-05-07T00:42:59.237Z,13.63
2023-05-07T00:45:30.575Z,12.68
2023-05-07T00:47:59.669Z,11.43
2023-05-07T00:50:28.108Z,16.33
2023-05-07T00:52:56.124Z,12.70
2023-05-07T00:55:24.567Z,8.63
2023-05-07T00:57:52.870Z,11.15
2023-05-07T01:00:21.078Z,9.55
2023-05-07T01:02:49.028Z,11.43
2023-05-07T01:05:18.013Z,12.73
2023-05-07T01:07:46.716Z,14.07
2023-05-07T01:10:14.721Z,8.98
2023-05-07T01:12:42.663Z,10.88
2023-05-07T01:15:11.151Z,11.60
2023-05-07T01:17:39.988Z,13.07
2023-05-07T01:20:15.322Z,8.98
2023-05-07T01:22:43.145Z,9.55
2023-05-07T01:25:10.913Z,13.48
2023-05-07T01:27:41.274Z,11.23
2023-05-07T01:30:09.528Z,7.32
2023-05-07T01:32:44.844Z,9.38
2023-05-07T01:35:14.338Z,7.50
2023-05-07T01:37:43.373Z,8.13
2023-05-07T01:40:14.387Z,8.75
2023-05-07T01:42:42.735Z,8.43
2023-05-07T01:45:10.683Z,7.85
2023-05-07T01:47:38.827Z,7.35
2023-05-07T01:50:09.669Z,8.68
2023-05-07T01:52:38.675Z,9.60
2023-05-07T01:55:07.190Z,11.23
2023-05-07T01:57:34.829Z,10.93
2023-05-07T02:00:07.254Z,13.95
2023-05-07T02:02:35.086Z,13.25
2023-05-07T02:05:03.056Z,12.02
2023-05-07T02:07:30.775Z,13.98
2023-05-07T02:09:58.638Z,12.52
2023-05-07T02:12:29.053Z,12.95
2023-05-07T02:14:56.820Z,9.55
2023-05-07T02:17:24.554Z,8.75
2023-05-07T02:19:54.788Z,13.73
2023-05-07T02:22:22.436Z,14.32
2023-05-07T02:24:50.307Z,11.85
2023-05-07T02:27:18.072Z,14.38
2023-05-07T02:29:48.293Z,11.15
2023-05-07T02:32:16.374Z,15.38
2023-05-07T02:34:44.239Z,15.00
2023-05-07T02:37:12.963Z,13.02
2023-05-07T02:39:40.860Z,13.90
2023-05-07T02:42:08.765Z,14.13
2023-05-07T02:44:36.732Z,13.50
2023-05-07T02:47:04.580Z,10.85
2023-05-07T02:49:32.627Z,11.05
2023-05-07T02:52:00.241Z,11.40
2023-05-07T02:54:27.920Z,14.20
2023-05-07T02:56:55.558Z,9.13
2023-05-07T02:59:27.386Z,16.48
2023-05-07T03:01:55.143Z,10.90
2023-05-07T03:04:22.959Z,12.77
2023-05-07T03:06:50.617Z,12.65
2023-05-07T03:09:18.473Z,13.52
2023-05-07T03:11:46.265Z,12.70
2023-05-07T03:14:14.168Z,11.45
2023-05-07T03:16:41.865Z,8.13
2023-05-07T03:19:09.484Z,7.53
2023-05-07T03:21:37.171Z,7.28
2023-05-07T03:24:05.027Z,12.18
2023-05-07T03:26:32.712Z,7.57
2023-05-07T03:29:00.392Z,8.93
2023-05-07T03:31:28.234Z,9.30
2023-05-07T03:33:56.641Z,8.75
2023-05-07T03:36:26.301Z,11.88
2023-05-07T03:38:54.098Z,7.53
2023-05-07T03:41:25.121Z,10.02
2023-05-07T03:43:52.925Z,9.85
2023-05-07T03:46:23.157Z,12.43
2023-05-07T03:48:51.065Z,8.30
2023-05-07T03:51:18.963Z,9.32
2023-05-07T03:53:46.775Z,11.65
2023-05-07T03:56:14.542Z,9.93
2023-05-07T03:58:42.352Z,12.43
2023-05-07T04:01:10.088Z,13.73
2023-05-07T04:03:38.024Z,19.05
2023-05-07T04:06:05.944Z,18.02
2023-05-07T04:08:33.776Z,19.95
2023-05-07T04:11:01.693Z,24.48
2023-05-07T04:13:29.580Z,15.05
2023-05-07T04:15:57.782Z,19.65
2023-05-07T04:18:25.533Z,19.60
2023-05-07T04:20:53.295Z,18.33
2023-05-07T04:23:21.309Z,16.92
2023-05-07T04:25:49.028Z,18.35
2023-05-07T04:28:16.958Z,18.00
2023-05-07T04:30:44.686Z,22.02
2023-05-07T04:33:12.877Z,16.63
2023-05-07T04:35:40.746Z,18.52
2023-05-07T04:38:08.518Z,19.70
2023-05-07T04:40:37.957Z,13.88
2023-05-07T04:43:05.691Z,15.57
2023-05-07T04:45:36.033Z,15.15
2023-05-07T04:48:03.932Z,11.93
2023-05-07T04:50:32.333Z,14.85
2023-05-07T04:53:00.119Z,15.63
2023-05-07T04:55:27.861Z,15.52
2023-05-07T04:57:55.465Z,13.10
2023-05-07T05:00:24.321Z,9.68
2023-05-07T05:02:52.244Z,9.57
2023-05-07T05:05:20.244Z,6.10
2023-05-07T05:07:47.917Z,5.60
2023-05-07T05:10:15.637Z,6.55
2023-05-07T05:12:46.526Z,10.27
2023-05-07T05:15:14.495Z,8.18
2023-05-07T05:17:45.183Z,5.63
2023-05-07T05:20:13.428Z,6.10
2023-05-07T05:22:41.425Z,4.07
2023-05-07T05:25:09.329Z,5.78
2023-05-07T05:27:37.083Z,5.47
2023-05-07T05:30:05.485Z,8.80
2023-05-07T05:32:34.678Z,7.07
2023-05-07T05:35:02.845Z,3.75
2023-05-07T05:37:31.412Z,5.95
2023-05-07T05:39:59.609Z,6.32
2023-05-07T05:42:27.375Z,7.43
2023-05-07T05:44:57.662Z,6.82
2023-05-07T05:47:25.453Z,6.22
2023-05-07T05:49:53.120Z,7.45
2023-05-07T05:52:21.021Z,5.22
2023-05-07T05:54:48.707Z,7.90
2023-05-07T05:57:16.493Z,6.35
2023-05-07T05:59:44.659Z,7.47
2023-05-07T06:02:12.561Z,7.88
2023-05-07T06:04:40.222Z,6.68
2023-05-07T06:07:08.111Z,7.45
2023-05-07T06:09:35.888Z,15.38
2023-05-07T06:12:03.672Z,5.07
2023-05-07T06:14:33.911Z,8.85
2023-05-07T06:17:01.733Z,6.03
2023-05-07T06:19:29.592Z,6.68
2023-05-07T06:22:02.419Z,6.93
2023-05-07T06:24:30.239Z,7.20
2023-05-07T06:26:59.568Z,5.90
2023-05-07T06:29:27.551Z,9.38
2023-05-07T06:31:55.858Z,7.53
2023-05-07T06:34:23.605Z,6.60
2023-05-07T06:36:51.348Z,2.35
2023-05-07T06:39:19.685Z,6.53
2023-05-07T06:41:47.340Z,2.58
2023-05-07T06:44:15.246Z,6.28
2023-05-07T06:46:43.101Z,6.90
2023-05-07T06:49:10.979Z,4.85
2023-05-07T06:51:38.860Z,2.65
2023-05-07T06:54:06.784Z,4.82
2023-05-07T06:56:35.267Z,4.45
2023-05-07T06:59:03.868Z,2.42
2023-05-07T07:01:31.939Z,2.17
2023-05-07T07:03:59.731Z,3.10
2023-05-07T07:06:28.105Z,6.45
2023-05-07T07:08:55.837Z,5.68
2023-05-07T07:11:23.558Z,5.18
2023-05-07T07:13:51.907Z,2.70
2023-05-07T07:16:19.607Z,3.60
2023-05-07T07:18:47.312Z,3.05
2023-05-07T07:21:15.024Z,3.30
2023-05-07T07:23:42.871Z,2.50
2023-05-07T07:26:10.515Z,10.32
2023-05-07T07:28:45.263Z,3.17
2023-05-07T07:31:13.435Z,2.80
2023-05-07T07:33:41.286Z,4.45
2023-05-07T07:36:09.531Z,3.17
2023-05-07T07:38:37.590Z,4.75
2023-05-07T07:41:05.436Z,3.38
2023-05-07T07:43:33.227Z,3.70
2023-05-07T07:46:01.089Z,2.78
2023-05-07T07:48:28.808Z,5.20
2023-05-07T07:50:56.689Z,3.00
2023-05-07T07:53:24.579Z,2.03
2023-05-07T07:55:53.157Z,4.20
2023-05-07T08:00:51.128Z,4.72
2023-05-07T08:03:18.954Z,8.40
2023-05-07T08:05:46.670Z,5.68
2023-05-07T08:08:14.459Z,5.18
2023-05-07T08:10:42.138Z,4.40
2023-05-07T08:13:09.964Z,3.35
2023-05-07T08:15:37.801Z,2.75
2023-05-07T08:18:08.105Z,3.00
2023-05-07T08:20:40.647Z,2.92
2023-05-07T08:23:08.782Z,4.00
2023-05-07T08:25:36.604Z,2.63
2023-05-07T08:28:04.559Z,2.60
2023-05-07T08:30:32.293Z,4.57
2023-05-07T08:33:00.152Z,3.55
2023-05-07T08:35:29.074Z,4.90
2023-05-07T08:37:57.841Z,3.88
2023-05-07T08:40:27.054Z,10.23
2023-05-07T08:42:55.216Z,2.70
2023-05-07T08:45:22.944Z,6.47
2023-05-07T08:47:54.319Z,3.92
2023-05-07T08:50:22.805Z,2.60
2023-05-07T08:52:50.697Z,3.95
2023-05-07T08:55:18.549Z,4.03
2023-05-07T08:57:46.404Z,6.55
2023-05-07T09:00:14.473Z,8.10
2023-05-07T09:02:42.240Z,3.15
2023-05-07T09:05:10.582Z,4.00
2023-05-07T09:07:38.409Z,2.97
2023-05-07T09:10:06.569Z,3.45
2023-05-07T09:12:36.337Z,4.15
2023-05-07T09:15:04.549Z,3.63
2023-05-07T09:17:32.368Z,2.92
2023-05-07T09:20:09.378Z,4.35
2023-05-07T09:22:39.118Z,3.25
2023-05-07T09:25:08.940Z,4.32
2023-05-07T09:27:39.875Z,2.65
2023-05-07T09:30:08.353Z,5.20
2023-05-07T09:32:39.523Z,4.43
2023-05-07T09:35:07.583Z,3.70
2023-05-07T09:37:36.308Z,3.67
2023-05-07T09:40:04.207Z,3.78
2023-05-07T09:42:37.818Z,3.70
2023-05-07T09:45:07.361Z,6.30
2023-05-07T09:47:38.171Z,6.85
2023-05-07T09:50:07.701Z,4.63
2023-05-07T09:52:36.402Z,3.70
2023-05-07T09:55:04.753Z,2.60
2023-05-07T09:57:34.636Z,2.45
2023-05-07T10:00:05.454Z,2.80
2023-05-07T10:02:33.900Z,7.03
2023-05-07T10:05:02.854Z,2.13
2023-05-07T10:07:31.045Z,5.88
2023-05-07T10:10:00.632Z,3.50
2023-05-07T10:12:28.489Z,6.97
2023-05-07T10:14:56.668Z,5.07
2023-05-07T10:17:25.494Z,5.63
2023-05-07T10:19:58.141Z,7.57
2023-05-07T10:22:28.609Z,4.65
2023-05-07T10:24:57.547Z,4.53
2023-05-07T10:27:26.381Z,3.45
2023-05-07T10:30:00.228Z,4.15
2023-05-07T10:32:49.656Z,4.60
2023-05-07T10:35:24.175Z,8.27
2023-05-07T10:37:52.597Z,2.38
2023-05-07T10:40:21.075Z,4.15
2023-05-07T10:43:02.344Z,4.72
2023-05-07T10:45:30.645Z,4.20
2023-05-07T10:48:28.760Z,2.88
2023-05-07T10:51:20.832Z,2.97
2023-05-07T10:53:48.655Z,5.20
2023-05-07T10:56:19.796Z,3.97
2023-05-07T10:58:47.622Z,4.60
2023-05-07T11:01:15.934Z,3.13
2023-05-07T11:04:15.862Z,2.47
2023-05-07T11:06:44.061Z,0.90
2023-05-07T11:09:11.704Z,6.18
2023-05-07T11:11:57.025Z,3.08
2023-05-07T11:14:46.379Z,8.10
2023-05-07T11:17:14.169Z,4.25
2023-05-07T11:19:54.620Z,4.85
2023-05-07T11:22:34.567Z,2.63
2023-05-07T11:25:02.372Z,2.67
2023-05-07T11:27:30.426Z,1.70
2023-05-07T11:29:58.328Z,4.40
2023-05-07T11:32:26.401Z,3.13
2023-05-07T11:34:54.604Z,3.80
2023-05-07T11:37:22.605Z,3.78
2023-05-07T11:42:32.571Z,2.55
2023-05-07T11:45:00.305Z,3.30
2023-05-07T11:47:28.125Z,2.13
2023-05-07T11:49:59.845Z,3.42
2023-05-07T11:52:27.507Z,3.05
2023-05-07T11:54:56.355Z,2.88
2023-05-07T11:57:24.380Z,5.95
2023-05-07T12:00:02.866Z,1.88
2023-05-07T12:02:30.960Z,3.92
2023-05-07T12:04:58.797Z,5.22
2023-05-07T12:07:26.383Z,4.00
2023-05-07T12:09:54.013Z,2.28
2023-05-07T12:12:21.671Z,4.97
2023-05-07T12:14:52.922Z,2.08
2023-05-07T12:17:20.739Z,2.53
2023-05-07T12:19:49.207Z,5.65
2023-05-07T12:22:16.887Z,4.70
2023-05-07T12:24:51.634Z,2.75
2023-05-07T12:27:19.451Z,2.70
2023-05-07T12:29:50.856Z,3.90
2023-05-07T12:32:22.561Z,7.47
2023-05-07T12:34:53.283Z,4.60
2023-05-07T12:37:29.042Z,4.47
2023-05-07T12:40:09.026Z,1.95
2023-05-07T12:42:40.607Z,6.50
2023-05-07T12:45:12.913Z,2.80
2023-05-07T12:47:41.168Z,4.30
2023-05-07T12:50:09.207Z,3.17
2023-05-07T12:52:36.986Z,6.47
2023-05-07T12:55:07.964Z,2.72
2023-05-07T12:57:49.370Z,3.70
2023-05-07T13:00:17.258Z,6.10
2023-05-07T13:02:45.756Z,6.82
2023-05-07T13:05:13.910Z,5.35
2023-05-07T13:07:42.335Z,3.80
2023-05-07T13:10:10.400Z,4.28
2023-05-07T13:12:38.147Z,1.83
2023-05-07T13:15:06.104Z,4.55
2023-05-07T13:17:34.073Z,1.52
2023-05-07T13:20:01.902Z,2.45
2023-05-07T13:22:29.672Z,3.25
2023-05-07T13:24:57.295Z,3.40
2023-05-07T13:27:25.166Z,11.27
2023-05-07T13:29:52.932Z,1.67
2023-05-07T13:32:20.677Z,3.78
2023-05-07T13:34:48.558Z,3.35
2023-05-07T13:37:17.030Z,3.17
2023-05-07T13:39:47.919Z,6.85
2023-05-07T13:42:15.768Z,5.65
2023-05-07T13:44:44.805Z,10.25
2023-05-07T13:47:12.487Z,5.63
2023-05-07T13:49:40.243Z,1.67
2023-05-07T13:52:08.008Z,5.55
2023-05-07T13:54:35.626Z,5.55
2023-05-07T13:57:03.339Z,3.67
2023-05-07T13:59:31.147Z,3.58
2023-05-07T14:01:58.735Z,3.97
2023-05-07T14:04:27.031Z,3.92
2023-05-07T14:06:54.795Z,2.28
2023-05-07T14:09:22.322Z,4.45
2023-05-07T14:11:52.368Z,3.67
2023-05-07T14:14:22.651Z,4.53
2023-05-07T14:16:51.030Z,4.88
2023-05-07T14:19:19.304Z,4.22
2023-05-07T14:21:46.852Z,3.70
2023-05-07T14:24:17.265Z,5.10
2023-05-07T14:26:52.400Z,2.28
2023-05-07T14:29:23.865Z,4.95
2023-05-07T14:31:51.943Z,11.20
2023-05-07T14:34:19.849Z,4.53
2023-05-07T14:36:48.601Z,4.25
2023-05-07T14:39:18.740Z,8.70
2023-05-07T14:41:46.434Z,3.42
2023-05-07T14:44:14.109Z,5.32
2023-05-07T14:46:41.909Z,3.90
2023-05-07T14:49:17.922Z,2.53
2023-05-07T14:51:46.741Z,5.38
2023-05-07T14:54:17.519Z,4.03
2023-05-07T14:56:47.939Z,3.28
2023-05-07T14:59:17.161Z,4.88
2023-05-07T15:01:46.547Z,3.13
2023-05-07T15:04:14.843Z,4.47
2023-05-07T15:06:42.690Z,4.20
2023-05-07T15:09:10.460Z,1.33
2023-05-07T15:11:38.112Z,2.28
2023-05-07T15:14:05.722Z,4.07
2023-05-07T15:16:36.672Z,4.80
2023-05-07T15:19:04.606Z,2.90
2023-05-07T15:21:35.247Z,3.88
2023-05-07T15:24:03.016Z,5.60
2023-05-07T15:26:30.729Z,2.70
2023-05-07T15:28:58.542Z,3.25
2023-05-07T15:31:26.724Z,2.97
2023-05-07T15:33:56.885Z,4.32
2023-05-07T15:36:26.151Z,10.23
2023-05-07T15:41:22.353Z,2.92
2023-05-07T15:43:50.879Z,1.20
2023-05-07T15:46:25.889Z,10.38
2023-05-07T15:48:54.610Z,4.70
2023-05-07T15:51:22.928Z,3.45
2023-05-07T15:53:52.230Z,2.65
2023-05-07T15:56:19.967Z,2.80
2023-05-07T15:58:48.425Z,3.25
2023-05-07T16:01:16.467Z,5.40
2023-05-07T16:03:44.962Z,6.57
2023-05-07T16:06:12.763Z,11.35
2023-05-07T16:08:41.748Z,3.13
2023-05-07T16:11:09.620Z,3.10
2023-05-07T16:13:37.548Z,3.20
2023-05-07T16:16:05.306Z,3.83
2023-05-07T16:18:33.522Z,2.88
2023-05-07T16:21:01.464Z,2.58
2023-05-07T16:23:29.162Z,1.75
2023-05-07T16:25:57.325Z,4.18
2023-05-07T16:28:25.726Z,2.70
2023-05-07T16:30:53.800Z,2.63
2023-05-07T16:33:21.787Z,6.82
2023-05-07T16:35:53.531Z,3.33
2023-05-07T16:38:21.770Z,6.25
2023-05-07T16:40:49.841Z,2.28
2023-05-07T16:43:17.602Z,2.95
2023-05-07T16:45:48.578Z,8.38
2023-05-07T16:48:16.606Z,2.67
2023-05-07T16:50:45.601Z,3.53
2023-05-07T16:53:16.137Z,4.38
2023-05-07T16:55:43.900Z,5.03
2023-05-07T16:58:12.452Z,4.90
2023-05-07T17:00:50.206Z,4.22
2023-05-07T17:03:18.883Z,6.95
2023-05-07T17:05:46.907Z,3.17
2023-05-07T17:08:14.812Z,5.38
2023-05-07T17:10:42.698Z,1.67
2023-05-07T17:13:10.463Z,1.38
2023-05-07T17:15:38.298Z,4.28
2023-05-07T17:18:06.205Z,2.67
2023-05-07T17:20:34.106Z,2.53
2023-05-07T17:23:01.808Z,2.20
2023-05-07T17:25:32.086Z,2.85
2023-05-07T17:27:59.839Z,2.67
2023-05-07T17:30:30.220Z,2.83
2023-05-07T17:33:06.190Z,2.42
2023-05-07T17:35:40.897Z,2.83
2023-05-07T17:38:09.173Z,9.77
2023-05-07T17:40:37.468Z,3.85
2023-05-07T17:43:05.203Z,2.05
2023-05-07T17:45:33.348Z,5.32
2023-05-07T17:48:01.589Z,2.53
2023-05-07T17:50:29.590Z,3.28
2023-05-07T17:52:57.362Z,10.98
2023-05-07T17:55:25.185Z,9.32
2023-05-07T17:57:53.039Z,7.85
2023-05-07T18:00:20.979Z,5.40
2023-05-07T18:02:48.620Z,3.75
2023-05-07T18:05:16.505Z,7.93
2023-05-07T18:07:44.150Z,12.43
2023-05-07T18:10:12.244Z,6.93
2023-05-07T18:12:40.276Z,5.43
2023-05-07T18:15:10.855Z,4.30
2023-05-07T18:17:38.681Z,10.85
2023-05-07T18:20:08.667Z,6.82
2023-05-07T18:22:36.361Z,5.57
2023-05-07T18:25:04.254Z,6.72
2023-05-07T18:27:32.096Z,6.82
2023-05-07T18:29:59.686Z,14.82
2023-05-07T18:32:27.646Z,6.47
2023-05-07T18:34:55.348Z,9.48
2023-05-07T18:37:24.735Z,5.13
2023-05-07T18:39:54.980Z,7.53
2023-05-07T18:42:22.817Z,10.73
2023-05-07T18:44:50.958Z,10.18
2023-05-07T18:47:18.759Z,8.90
2023-05-07T18:49:46.898Z,9.93
2023-05-07T18:52:19.362Z,9.25
2023-05-07T18:54:47.215Z,7.15
2023-05-07T18:57:15.084Z,6.70
2023-05-07T18:59:42.958Z,10.60
2023-05-07T19:02:11.102Z,7.93
2023-05-07T19:04:38.991Z,11.63
2023-05-07T19:07:09.220Z,6.72
2023-05-07T19:09:37.044Z,15.60
2023-05-07T19:12:04.936Z,21.45
2023-05-07T19:14:32.671Z,51.00
2023-05-07T19:17:00.433Z,38.83
2023-05-07T19:19:28.235Z,37.47
2023-05-07T19:21:56.003Z,25.42
2023-05-07T19:24:23.521Z,33.08
2023-05-07T19:26:51.239Z,29.80
2023-05-07T19:29:19.059Z,28.65
2023-05-07T19:31:46.917Z,24.83
2023-05-07T19:34:14.670Z,27.85
2023-05-07T19:36:42.927Z,33.78
2023-05-07T19:39:11.695Z,39.70
2023-05-07T19:41:42.066Z,35.20
2023-05-07T19:44:09.846Z,35.58
2023-05-07T19:46:40.508Z,29.85
2023-05-07T19:49:10.549Z,32.10
2023-05-07T19:51:39.670Z,27.70
2023-05-07T19:54:10.556Z,27.30
2023-05-07T19:56:39.991Z,28.23
2023-05-07T19:59:07.711Z,27.08
2023-05-07T20:01:39.312Z,29.23
2023-05-07T20:04:07.343Z,18.95
2023-05-07T20:06:35.083Z,24.35
2023-05-07T20:09:02.957Z,21.70
2023-05-07T20:11:31.898Z,20.65
2023-05-07T20:13:59.566Z,21.52
2023-05-07T20:16:27.446Z,20.33
2023-05-07T20:18:55.289Z,15.85
2023-05-07T20:21:23.139Z,17.08
2023-05-07T20:23:51.280Z,18.23
2023-05-07T20:26:19.226Z,17.30
2023-05-07T20:28:47.064Z,11.90
2023-05-07T20:31:15.925Z,10.98
2023-05-07T20:33:43.755Z,12.77
2023-05-07T20:36:12.050Z,11.43
2023-05-07T20:38:40.581Z,14.07
2023-05-07T20:41:08.902Z,12.32
2023-05-07T20:43:40.149Z,11.95
2023-05-07T20:46:08.104Z,11.85
2023-05-07T20:48:36.060Z,27.38
2023-05-07T20:51:04.310Z,66.72
2023-05-07T20:53:34.532Z,36.10
2023-05-07T20:56:02.321Z,28.67
2023-05-07T20:58:30.015Z,27.17
2023-05-07T21:00:57.935Z,28.05
2023-05-07T21:03:26.313Z,23.58
2023-05-07T21:05:54.437Z,16.90
2023-05-07T21:08:22.321Z,17.15
2023-05-07T21:10:50.982Z,14.77
2023-05-07T21:13:18.920Z,13.95
2023-05-07T21:15:46.767Z,17.75
2023-05-07T21:18:14.598Z,21.83
2023-05-07T21:20:42.346Z,17.70
2023-05-07T21:23:10.136Z,24.40
2023-05-07T21:25:41.647Z,19.77
2023-05-07T21:28:09.555Z,18.67
2023-05-07T21:30:37.801Z,20.70
2023-05-07T21:33:07.825Z,25.02
2023-05-07T21:35:36.752Z,33.35
2023-05-07T21:38:04.628Z,39.65
2023-05-07T21:40:32.789Z,43.30
2023-05-07T21:43:03.618Z,60.03
2023-05-07T21:45:31.432Z,57.90
2023-05-07T21:47:59.317Z,61.20
2023-05-07T21:50:26.998Z,61.53
2023-05-07T21:52:54.815Z,54.72
2023-05-07T21:55:22.612Z,60.55
2023-05-07T21:58:04.027Z,49.60
2023-05-07T22:00:33.275Z,48.22
2023-05-07T22:03:01.745Z,41.70
2023-05-07T22:05:29.978Z,42.65
2023-05-07T22:07:57.736Z,50.55
2023-05-07T22:10:25.377Z,38.92
2023-05-07T22:12:53.206Z,28.25
2023-05-07T22:15:20.975Z,21.88
2023-05-07T22:17:48.689Z,17.77
2023-05-07T22:20:16.503Z,19.63
2023-05-07T22:22:49.508Z,14.05
2023-05-07T22:25:19.730Z,12.48
2023-05-07T22:27:47.626Z,14.98
2023-05-07T22:30:18.665Z,17.83
2023-05-07T22:32:46.482Z,11.20
2023-05-07T22:35:14.235Z,11.00
2023-05-07T22:37:42.053Z,9.30
2023-05-07T22:40:10.531Z,12.48
2023-05-07T22:42:38.460Z,13.55
2023-05-07T22:45:06.481Z,11.85
2023-05-07T22:47:34.303Z,13.57
2023-05-07T22:50:02.079Z,13.32
2023-05-07T22:52:30.029Z,10.63
2023-05-07T22:54:57.696Z,9.95
2023-05-07T22:57:25.532Z,9.45
2023-05-07T22:59:56.879Z,9.27
2023-05-07T23:02:24.759Z,14.48
2023-05-07T23:04:55.634Z,11.93
2023-05-07T23:07:23.473Z,19.90
2023-05-07T23:09:51.249Z,9.82
2023-05-07T23:12:19.052Z,10.60
2023-05-07T23:14:47.169Z,7.93
2023-05-07T23:17:17.303Z,10.93
2023-05-07T23:19:45.474Z,13.23
2023-05-07T23:22:16.672Z,14.45
2023-05-07T23:24:44.709Z,14.50
2023-05-07T23:27:12.564Z,10.82
2023-05-07T23:29:40.742Z,14.55
2023-05-07T23:32:08.464Z,11.65
2023-05-07T23:34:36.183Z,17.25
2023-05-07T23:37:06.692Z,15.50
2023-05-07T23:39:35.125Z,12.82
2023-05-07T23:42:02.981Z,12.02
2023-05-07T23:44:30.920Z,15.50
2023-05-07T23:46:58.679Z,11.00
2023-05-07T23:49:26.242Z,15.52
2023-05-07T23:51:54.149Z,14.32
2023-05-07T23:54:21.913Z,21.55
2023-05-07T23:56:49.612Z,14.52
2023-05-07T23:59:17.415Z,18.42
